Time;durP1;ratioP1;P1;durP2;ratioP2;P2;SDS_P1;SDS_P2;PMS_P1;PMS_P2;Temp;Humidity;BMP_temperature;BMP_pressure;BME280_temperature;BME280_humidity;BME280_pressure;Samples;Min_cycle;Max_cycle;Signal;HPM_P1;HPM_P2
2022/07/26 00:00:08;;;;;;;9.15;1.30;;;;;;;17.62;82.60;100939.91;2016538;29;39130;-70
2022/07/26 00:01:10;;;;;;;12.05;1.52;;;;;;;17.66;82.99;100935.22;2016860;29;26406;-70
2022/07/26 00:02:12;;;;;;;12.23;1.40;;;;;;;17.67;83.17;100939.66;2017257;29;20034;-70
2022/07/26 00:03:21;;;;;;;10.55;1.75;;;;;;;17.70;82.29;100943.09;2016949;29;32924;-70
2022/07/26 00:04:22;;;;;;;12.15;1.70;;;;;;;17.69;83.14;100941.34;2023601;29;35218;-70
2022/07/26 00:05:24;;;;;;;9.82;1.50;;;;;;;17.72;83.03;100940.28;2023645;29;30957;-69
2022/07/26 00:06:26;;;;;;;10.52;1.40;;;;;;;17.72;82.27;100940.28;2015913;29;39587;-70
2022/07/26 00:07:28;;;;;;;11.32;1.40;;;;;;;17.74;82.74;100941.09;2016368;29;34493;-70
2022/07/26 00:08:36;;;;;;;7.88;1.35;;;;;;;17.75;82.84;100940.16;2017338;29;22351;-70
2022/07/26 00:09:38;;;;;;;15.73;1.83;;;;;;;17.77;82.44;100940.06;2016440;29;34173;-70
2022/07/26 00:10:50;;;;;;;12.60;1.80;;;;;;;17.77;82.43;100938.22;2017349;29;20042;-70
2022/07/26 00:11:54;;;;;;;9.73;1.25;;;;;;;17.78;82.63;100942.66;2017322;29;20042;-70
2022/07/26 00:12:56;;;;;;;9.50;1.60;;;;;;;17.80;82.86;100945.28;2017756;29;28339;-70
2022/07/26 00:14:00;;;;;;;15.02;2.00;;;;;;;17.81;83.14;100937.09;2016613;29;27942;-71
2022/07/26 00:15:07;;;;;;;10.23;1.60;;;;;;;17.81;82.53;100941.66;2016560;29;37079;-70
2022/07/26 00:16:10;;;;;;;10.15;1.10;;;;;;;17.83;83.21;100940.59;2017102;29;24933;-70
2022/07/26 00:17:12;;;;;;;7.55;1.38;;;;;;;17.84;82.91;100936.94;2016245;29;33973;-70
2022/07/26 00:18:15;;;;;;;10.85;1.77;;;;;;;17.83;82.63;100935.19;2016717;29;34683;-70
2022/07/26 00:19:17;;;;;;;8.15;1.00;;;;;;;17.82;82.72;100938.84;2017237;29;20054;-70
2022/07/26 00:20:19;;;;;;;11.10;1.67;;;;;;;17.83;82.55;100937.88;2016654;29;32049;-70
2022/07/26 00:21:21;;;;;;;12.00;1.42;;;;;;;17.85;83.28;100937.81;2016522;29;29874;-70
2022/07/26 00:22:38;;;;;;;10.23;1.45;;;;;;;17.86;83.16;100929.63;2016545;29;27820;-70
2022/07/26 00:23:42;;;;;;;10.82;1.25;;;;;;;17.87;83.21;100941.34;2016848;29;27734;-70
2022/07/26 00:24:43;;;;;;;10.77;1.73;;;;;;;17.86;83.22;100935.06;2016380;29;29565;-70
2022/07/26 00:25:45;;;;;;;13.52;1.65;;;;;;;17.86;82.85;100940.47;2016800;29;32566;-70
2022/07/26 00:26:47;;;;;;;11.60;1.65;;;;;;;17.86;82.94;100939.59;2016391;29;30895;-70
2022/07/26 00:27:49;;;;;;;9.65;1.17;;;;;;;17.86;82.50;100943.19;2017260;29;21648;-71
2022/07/26 00:28:53;;;;;;;14.30;1.67;;;;;;;17.88;82.87;100934.97;2016536;29;30446;-70
2022/07/26 00:29:54;;;;;;;9.18;1.48;;;;;;;17.88;83.62;100941.25;2016320;29;29448;-70
2022/07/26 00:30:58;;;;;;;12.95;1.55;;;;;;;17.88;82.99;100937.69;2016430;29;20047;-71
2022/07/26 00:32:03;;;;;;;14.15;2.22;;;;;;;17.88;83.85;100940.41;2016785;29;28161;-70
2022/07/26 00:33:05;;;;;;;9.98;1.60;;;;;;;17.88;83.59;100940.41;2016440;29;29975;-70
2022/07/26 00:34:07;;;;;;;9.68;1.40;;;;;;;17.88;83.47;100941.25;2016486;29;26624;-71
2022/07/26 00:35:10;;;;;;;12.68;1.90;;;;;;;17.87;83.77;100936.81;2016623;29;20883;-70
2022/07/26 00:36:12;;;;;;;8.65;1.42;;;;;;;17.85;83.94;100936.00;2015644;29;41245;-70
2022/07/26 00:37:13;;;;;;;10.52;1.40;;;;;;;17.84;84.06;100941.50;2015911;29;30968;-70
2022/07/26 00:38:20;;;;;;;16.77;2.10;;;;;;;17.82;84.00;100944.28;2016968;29;28674;-70
2022/07/26 00:39:23;;;;;;;9.82;1.67;;;;;;;17.80;83.91;100934.47;2016090;29;30116;-71
2022/07/26 00:40:27;;;;;;;14.75;1.70;;;;;;;17.78;84.24;100948.09;2016466;29;40602;-70
2022/07/26 00:41:32;;;;;;;10.77;1.65;;;;;;;17.75;84.56;100948.28;2016542;29;30194;-70
2022/07/26 00:42:33;;;;;;;8.23;1.98;;;;;;;17.73;84.71;100942.06;2016509;29;32121;-70
2022/07/26 00:43:35;;;;;;;11.15;1.40;;;;;;;17.69;84.62;100946.75;2016465;29;36106;-70
2022/07/26 00:44:39;;;;;;;16.02;2.10;;;;;;;17.66;84.62;100943.34;2016468;29;32399;-70
2022/07/26 00:45:41;;;;;;;16.80;2.15;;;;;;;17.64;85.64;100940.72;2016487;29;28600;-70
2022/07/26 00:46:43;;;;;;;13.73;1.83;;;;;;;17.60;85.72;100939.09;2016131;29;31022;-70
2022/07/26 00:47:45;;;;;;;9.57;1.60;;;;;;;17.57;86.02;100942.00;2016341;29;38114;-70
2022/07/26 00:48:47;;;;;;;15.38;2.00;;;;;;;17.53;85.86;100943.97;2016452;29;33342;-70
2022/07/26 00:49:49;;;;;;;12.18;1.80;;;;;;;17.49;85.89;100945.06;2016216;29;38651;-70
2022/07/26 00:50:54;;;;;;;11.15;1.63;;;;;;;17.49;86.19;100945.06;2024094;29;31772;-70
2022/07/26 00:51:56;;;;;;;13.02;1.73;;;;;;;17.48;86.51;100948.75;2023077;29;28428;-70
2022/07/26 00:52:58;;;;;;;12.48;2.15;;;;;;;17.46;86.92;100942.53;2017132;29;20103;-70
2022/07/26 00:54:03;;;;;;;16.50;2.10;;;;;;;17.46;87.50;100944.34;2016485;29;33752;-70
2022/07/26 00:55:06;;;;;;;12.07;1.88;;;;;;;17.46;87.50;100937.13;2016219;29;37595;-70
2022/07/26 00:56:08;;;;;;;12.93;1.88;;;;;;;17.43;87.11;100949.94;2016026;29;30068;-68
2022/07/26 00:57:13;;;;;;;13.68;2.05;;;;;;;17.39;86.54;100945.63;2016248;29;36702;-70
2022/07/26 00:58:17;;;;;;;13.23;2.15;;;;;;;17.38;87.83;100947.47;2016737;29;31222;-70
2022/07/26 00:59:23;;;;;;;15.15;1.88;;;;;;;17.36;87.44;100949.38;2016832;29;27539;-70
2022/07/26 01:00:26;;;;;;;12.23;1.77;;;;;;;17.33;87.45;100942.28;2016589;29;31291;-70
2022/07/26 01:01:28;;;;;;;13.43;1.95;;;;;;;17.34;87.79;100940.47;2015817;29;31201;-70
2022/07/26 01:02:31;;;;;;;15.10;2.10;;;;;;;17.33;87.86;100941.41;2016919;29;20834;-70
2022/07/26 01:03:33;;;;;;;11.07;1.75;;;;;;;17.33;88.08;100942.28;2016089;29;30468;-69
2022/07/26 01:04:38;;;;;;;16.35;2.17;;;;;;;17.32;88.17;100939.69;2024006;29;20092;-70
2022/07/26 01:05:41;;;;;;;14.43;2.10;;;;;;;17.31;87.75;100943.31;2022945;29;30891;-70
2022/07/26 01:06:43;;;;;;;11.30;1.75;;;;;;;17.33;88.08;100944.13;2016863;29;20046;-70
2022/07/26 01:07:47;;;;;;;9.32;1.73;;;;;;;17.31;88.15;100941.47;2016973;29;20109;-70
2022/07/26 01:08:50;;;;;;;10.10;1.85;;;;;;;17.33;88.19;100944.13;2023773;29;30290;-69
2022/07/26 01:09:52;;;;;;;8.93;1.85;;;;;;;17.33;88.28;100944.13;2022533;29;31320;-69
2022/07/26 01:10:56;;;;;;;17.50;2.53;;;;;;;17.31;88.35;100946.03;2016905;29;20161;-70
2022/07/26 01:11:58;;;;;;;12.88;1.90;;;;;;;17.29;88.36;100940.69;2016812;29;20052;-72
2022/07/26 01:13:00;;;;;;;11.68;1.73;;;;;;;17.30;88.54;100941.56;2017434;29;20831;-70
2022/07/26 01:14:04;;;;;;;13.48;1.73;;;;;;;17.29;88.68;100942.53;2016325;29;33394;-69
2022/07/26 01:15:09;;;;;;;11.35;1.42;;;;;;;17.28;88.19;100944.38;2017178;29;20041;-69
2022/07/26 01:16:10;;;;;;;12.68;1.90;;;;;;;17.31;89.49;100943.31;2016403;29;29257;-70
2022/07/26 01:17:13;;;;;;;10.52;1.52;;;;;;;17.31;88.62;100951.44;2016089;29;33682;-69
2022/07/26 01:18:15;;;;;;;14.40;2.25;;;;;;;17.29;88.83;100937.97;2016369;29;30743;-69
2022/07/26 01:19:18;;;;;;;11.60;1.92;;;;;;;17.29;88.53;100937.13;2016245;29;31719;-69
2022/07/26 01:20:20;;;;;;;16.20;1.73;;;;;;;17.28;89.04;100938.06;2016479;29;27245;-69
2022/07/26 01:21:29;;;;;;;13.20;2.13;;;;;;;17.28;89.16;100940.75;2016282;29;29517;-70
2022/07/26 01:22:31;;;;;;;16.27;1.73;;;;;;;17.28;88.93;100944.38;2023424;29;33377;-69
2022/07/26 01:23:33;;;;;;;12.35;1.50;;;;;;;17.26;88.34;100937.25;2022482;29;35263;-70
2022/07/26 01:24:35;;;;;;;12.30;1.63;;;;;;;17.24;88.99;100942.75;2023200;29;32689;-68
2022/07/26 01:25:38;;;;;;;18.13;2.10;;;;;;;17.21;89.18;100936.63;2023449;29;30891;-69
2022/07/26 01:26:46;;;;;;;11.55;2.08;;;;;;;17.17;89.10;100941.31;2023729;29;27933;-69
2022/07/26 01:27:48;;;;;;;12.77;1.70;;;;;;;17.16;89.02;100935.03;2022512;29;31314;-69
2022/07/26 01:28:50;;;;;;;13.52;2.08;;;;;;;17.16;90.05;100934.16;2016554;29;27989;-68
2022/07/26 01:29:52;;;;;;;11.80;2.15;;;;;;;17.14;89.59;100936.06;2015901;29;40835;-69
2022/07/26 01:30:54;;;;;;;14.68;1.92;;;;;;;17.13;89.57;100935.19;2016849;29;21213;-69
2022/07/26 01:32:00;;;;;;;10.43;1.85;;;;;;;17.10;90.41;100934.44;2016968;29;31703;-69
2022/07/26 01:33:04;;;;;;;11.57;2.03;;;;;;;17.06;90.39;100939.13;2016862;29;20987;-69
2022/07/26 01:34:07;;;;;;;15.20;1.90;;;;;;;17.05;90.48;100940.13;2016373;29;29707;-69
2022/07/26 01:35:12;;;;;;;12.68;2.30;;;;;;;17.08;90.30;100929.13;2016331;29;31793;-69
2022/07/26 01:36:14;;;;;;;13.35;2.30;;;;;;;17.06;90.72;100936.44;2017386;29;20164;-69
2022/07/26 01:37:15;;;;;;;13.32;2.35;;;;;;;17.03;90.86;100930.31;2016892;29;20229;-69
2022/07/26 01:38:17;;;;;;;18.83;2.40;;;;;;;17.02;90.75;100936.69;2016328;29;33204;-69
2022/07/26 01:39:19;;;;;;;16.65;2.00;;;;;;;16.97;90.77;100929.66;2015526;29;32345;-69
2022/07/26 01:40:21;;;;;;;17.75;1.90;;;;;;;16.97;90.92;100932.34;2016206;29;36815;-69
2022/07/26 01:41:23;;;;;;;16.25;2.67;;;;;;;16.95;91.35;100928.84;2016117;29;30926;-69
2022/07/26 01:42:31;;;;;;;11.40;1.85;;;;;;;16.94;91.18;100929.81;2016767;29;20156;-67
2022/07/26 01:43:34;;;;;;;13.82;1.77;;;;;;;16.91;91.23;100929.97;2015780;29;30817;-69
2022/07/26 01:44:36;;;;;;;16.80;2.63;;;;;;;16.90;91.64;100925.50;2016399;29;33419;-68
2022/07/26 01:45:38;;;;;;;17.90;2.97;;;;;;;16.91;91.91;100921.00;2015812;29;31908;-69
2022/07/26 01:46:39;;;;;;;18.90;2.63;;;;;;;16.91;91.68;100923.69;2016425;29;30889;-69
2022/07/26 01:47:41;;;;;;;12.85;2.13;;;;;;;16.87;91.78;100925.69;2016120;29;29895;-69
2022/07/26 01:48:43;;;;;;;15.80;2.28;;;;;;;16.86;91.64;100931.16;2015125;29;38492;-68
2022/07/26 01:49:45;;;;;;;13.15;1.63;;;;;;;16.83;91.67;100918.66;2016150;29;32336;-69
2022/07/26 01:50:47;;;;;;;12.32;1.90;;;;;;;16.83;91.65;100923.16;2016765;29;21010;-69
2022/07/26 01:51:51;;;;;;;17.70;2.40;;;;;;;16.82;92.02;100929.53;2015309;29;32850;-69
2022/07/26 01:52:53;;;;;;;11.57;2.08;;;;;;;16.78;92.36;100923.41;2015399;29;26852;-69
2022/07/26 01:53:55;;;;;;;15.57;2.33;;;;;;;16.78;92.52;100926.97;2015331;29;30528;-69
2022/07/26 01:54:59;;;;;;;13.70;2.10;;;;;;;16.80;92.95;100932.31;2015566;29;31980;-69
2022/07/26 01:56:01;;;;;;;14.98;2.22;;;;;;;16.76;92.32;100923.47;2015646;29;36674;-68
2022/07/26 01:57:03;;;;;;;14.18;1.98;;;;;;;16.76;93.01;100930.69;2015514;29;23736;-68
2022/07/26 01:58:05;;;;;;;14.88;2.60;;;;;;;16.72;92.23;100927.25;2015734;29;33234;-68
2022/07/26 01:59:07;;;;;;;12.55;2.08;;;;;;;16.73;93.01;100926.31;2016644;29;20041;-68
2022/07/26 02:00:09;;;;;;;14.93;2.83;;;;;;;16.71;93.35;100922.81;2015972;29;31798;-69
2022/07/26 02:01:11;;;;;;;13.10;1.98;;;;;;;16.67;92.90;100926.63;2016281;29;29586;-69
2022/07/26 02:02:13;;;;;;;12.48;2.25;;;;;;;16.64;92.81;100928.59;2015829;29;31384;-69
2022/07/26 02:03:17;;;;;;;13.68;1.90;;;;;;;16.61;93.16;100937.72;2016217;29;33964;-69
2022/07/26 02:05:42;;;;;;;10.23;2.13;;;;;;;16.62;93.62;100923.25;2020582;29;34029;-69
2022/07/26 02:06:45;;;;;;;16.08;2.17;;;;;;;16.60;94.35;100920.63;2015842;29;31097;-69
2022/07/26 02:07:47;;;;;;;13.07;2.30;;;;;;;16.59;94.21;100935.09;2016240;29;29696;-69
2022/07/26 02:08:49;;;;;;;12.98;2.03;;;;;;;16.58;94.18;100924.34;2015250;29;30075;-70
2022/07/26 02:09:53;;;;;;;12.77;2.47;;;;;;;16.57;94.32;100930.72;2015762;29;20164;-69
2022/07/26 02:11:01;;;;;;;16.38;2.60;;;;;;;16.55;94.15;100927.22;2015900;29;33193;-69
2022/07/26 02:12:08;;;;;;;11.20;2.63;;;;;;;16.52;94.10;100928.22;2016747;29;20947;-69
2022/07/26 02:13:09;;;;;;;13.25;2.53;;;;;;;16.51;94.10;100928.28;2016289;29;33096;-70
2022/07/26 02:14:11;;;;;;;14.90;2.50;;;;;;;16.53;94.81;100935.41;2016227;29;28390;-69
2022/07/26 02:15:16;;;;;;;10.80;1.70;;;;;;;16.48;94.01;100932.03;2016436;29;20045;-69
2022/07/26 02:16:19;;;;;;;11.70;2.10;;;;;;;16.47;94.66;100932.97;2015852;29;35244;-69
2022/07/26 02:17:23;;;;;;;17.40;2.60;;;;;;;16.44;94.05;100934.94;2016208;29;27186;-69
2022/07/26 02:18:29;;;;;;;15.85;2.42;;;;;;;16.43;95.10;100934.06;2015986;29;30376;-69
2022/07/26 02:19:31;;;;;;;15.73;2.03;;;;;;;16.39;94.45;100936.03;2016126;29;29272;-69
2022/07/26 02:20:33;;;;;;;12.98;1.92;;;;;;;16.37;94.76;100932.53;2016707;29;27461;-70
2022/07/26 02:21:35;;;;;;;12.00;2.42;;;;;;;16.36;95.19;100927.19;2016100;29;31576;-70
2022/07/26 02:22:36;;;;;;;17.60;2.80;;;;;;;16.41;95.86;100933.28;2016200;29;32196;-69
2022/07/26 02:23:39;;;;;;;12.93;2.10;;;;;;;16.38;95.33;100931.59;2015645;29;25468;-69
2022/07/26 02:24:43;;;;;;;15.48;1.90;;;;;;;16.37;96.05;100937.06;2016599;29;20191;-69
2022/07/26 02:25:48;;;;;;;14.52;2.45;;;;;;;16.40;95.85;100928.81;2016270;29;20086;-69
2022/07/26 02:26:53;;;;;;;14.93;2.35;;;;;;;16.36;95.39;100936.19;2023693;29;20042;-70
2022/07/26 02:27:55;;;;;;;15.23;2.47;;;;;;;16.33;95.84;100939.06;2022499;29;28941;-69
2022/07/26 02:28:57;;;;;;;15.18;2.67;;;;;;;16.36;96.48;100938.00;2015904;29;36264;-70
2022/07/26 02:29:59;;;;;;;11.32;1.63;;;;;;;16.33;96.02;100939.06;2015726;29;32228;-70
2022/07/26 02:31:01;;;;;;;15.85;2.70;;;;;;;16.34;96.33;100939.91;2016015;29;31063;-69
2022/07/26 02:32:06;;;;;;;14.52;2.47;;;;;;;16.33;96.32;100939.06;2016121;29;23082;-70
2022/07/26 02:33:08;;;;;;;17.58;2.67;;;;;;;16.34;96.25;100945.31;2016056;29;33551;-69
2022/07/26 02:34:12;;;;;;;15.57;2.38;;;;;;;16.34;96.58;100939.91;2015956;29;35778;-69
2022/07/26 02:35:14;;;;;;;14.73;2.47;;;;;;;16.33;96.61;100944.44;2016412;29;20599;-69
2022/07/26 02:36:18;;;;;;;15.27;2.42;;;;;;;16.30;96.50;100941.00;2016002;29;32392;-70
2022/07/26 02:37:20;;;;;;;13.90;2.17;;;;;;;16.30;96.30;100944.59;2015883;29;31677;-69
2022/07/26 02:38:21;;;;;;;12.18;2.33;;;;;;;16.28;96.55;100946.50;2015802;29;29766;-69
2022/07/26 02:39:26;;;;;;;13.25;2.28;;;;;;;16.24;96.65;100950.28;2015485;29;31105;-69
2022/07/26 02:40:28;;;;;;;13.25;2.60;;;;;;;16.29;96.68;100948.22;2015664;29;32267;-69
2022/07/26 02:41:30;;;;;;;18.15;2.83;;;;;;;16.27;96.58;100949.25;2015994;29;30978;-70
2022/07/26 02:42:32;;;;;;;15.48;2.40;;;;;;;16.23;96.78;100948.53;2022843;29;31014;-69
2022/07/26 02:43:34;;;;;;;15.98;2.60;;;;;;;16.23;96.68;100946.69;2023105;29;29498;-69
2022/07/26 02:44:36;;;;;;;13.63;2.47;;;;;;;16.25;97.33;100943.91;2015760;29;39210;-70
2022/07/26 02:45:37;;;;;;;18.65;2.63;;;;;;;16.26;97.20;100948.38;2016431;29;20187;-69
2022/07/26 02:46:41;;;;;;;16.77;3.00;;;;;;;16.24;96.96;100944.88;2015791;29;30978;-70
2022/07/26 02:47:50;;;;;;;15.93;2.63;;;;;;;16.25;96.96;100951.16;2015676;29;28658;-70
2022/07/26 02:48:55;;;;;;;11.88;2.63;;;;;;;16.22;97.09;100958.47;2015812;29;37776;-70
2022/07/26 02:49:59;;;;;;;14.93;2.75;;;;;;;16.26;97.32;100948.38;2016224;29;20049;-70
2022/07/26 02:51:01;;;;;;;15.70;2.10;;;;;;;16.24;97.46;100944.88;2016968;29;20179;-69
2022/07/26 02:52:03;;;;;;;13.75;2.63;;;;;;;16.25;97.51;100953.84;2015796;29;25353;-70
2022/07/26 02:53:08;;;;;;;16.55;2.67;;;;;;;16.25;97.46;100946.63;2016140;29;20042;-70
2022/07/26 02:54:13;;;;;;;12.30;2.33;;;;;;;16.23;97.14;100944.00;2015426;29;32051;-70
2022/07/26 02:55:34;;;;;;;13.02;2.30;;;;;;;16.22;97.19;100953.06;2015549;29;33900;-69
2022/07/26 02:56:37;;;;;;;16.42;2.60;;;;;;;16.25;97.91;100957.44;2015410;29;33243;-69
2022/07/26 02:57:39;;;;;;;14.68;2.80;;;;;;;16.24;97.51;100950.28;2022952;29;25429;-69
2022/07/26 02:58:46;;;;;;;15.15;2.55;;;;;;;16.23;97.81;100951.22;2022647;29;20105;-69
2022/07/26 02:59:48;;;;;;;19.40;2.78;;;;;;;16.24;97.55;100950.28;2016342;29;21139;-69
2022/07/26 03:00:50;;;;;;;18.30;2.90;;;;;;;16.22;97.36;100952.16;2017074;29;34169;-69
2022/07/26 03:01:52;;;;;;;16.60;2.45;;;;;;;16.22;98.16;100957.56;2017137;29;29363;-69
2022/07/26 03:02:54;;;;;;;16.23;2.92;;;;;;;16.17;97.60;100968.59;2017377;29;20061;-69
2022/07/26 03:03:56;;;;;;;13.10;2.58;;;;;;;16.16;97.96;100969.53;2017169;29;33529;-69
2022/07/26 03:04:58;;;;;;;16.08;2.53;;;;;;;16.15;97.55;100961.50;2017113;29;26158;-69
2022/07/26 03:06:02;;;;;;;11.80;2.42;;;;;;;16.12;97.61;100967.06;2017561;29;32648;-69
2022/07/26 03:07:03;;;;;;;11.20;2.22;;;;;;;16.12;97.97;100962.53;2016795;29;25068;-69
2022/07/26 03:08:06;;;;;;;16.08;2.58;;;;;;;16.13;98.63;100968.78;2025093;29;20105;-70
2022/07/26 03:09:08;;;;;;;15.15;2.58;;;;;;;16.15;98.42;100961.50;2023754;29;25498;-69
2022/07/26 03:10:10;;;;;;;19.80;3.40;;;;;;;16.17;99.16;100959.63;2024565;29;28258;-69
2022/07/26 03:11:12;;;;;;;13.68;2.90;;;;;;;16.12;98.62;100965.22;2024110;29;26167;-69
2022/07/26 03:12:14;;;;;;;16.70;2.70;;;;;;;16.12;98.37;100973.31;2016503;29;26903;-69
2022/07/26 03:13:15;;;;;;;17.92;2.83;;;;;;;16.10;98.62;100972.53;2017216;29;30132;-69
2022/07/26 03:14:17;;;;;;;16.35;3.00;;;;;;;16.12;98.93;100969.75;2024651;29;24118;-70
2022/07/26 03:15:20;;;;;;;15.40;2.92;;;;;;;16.11;99.08;100970.69;2024524;29;20037;-69
2022/07/26 03:16:22;;;;;;;16.92;3.03;;;;;;;16.10;98.86;100969.81;2017182;29;28632;-69
2022/07/26 03:17:29;;;;;;;11.60;2.15;;;;;;;16.07;99.06;100974.50;2016894;29;30014;-69
2022/07/26 03:18:31;;;;;;;15.93;2.95;;;;;;;16.07;98.72;100960.97;2017049;29;32726;-69
2022/07/26 03:19:33;;;;;;;17.75;3.50;;;;;;;16.07;99.30;100969.09;2016976;29;33130;-69
2022/07/26 03:20:34;;;;;;;14.70;2.78;;;;;;;16.04;98.75;100967.38;2017682;29;20130;-69
2022/07/26 03:21:36;;;;;;;16.65;2.80;;;;;;;16.02;99.50;100972.88;2016981;29;33106;-70
2022/07/26 03:22:38;;;;;;;17.63;2.97;;;;;;;16.05;99.31;100973.69;2016960;29;28429;-69
2022/07/26 03:23:41;;;;;;;18.13;2.92;;;;;;;16.05;99.40;100968.28;2017459;29;20041;-69
2022/07/26 03:24:45;;;;;;;22.50;3.67;;;;;;;16.04;99.90;100970.09;2016972;29;28693;-69
2022/07/26 03:25:49;;;;;;;13.43;2.88;;;;;;;16.03;99.73;100971.91;2016756;29;35607;-68
2022/07/26 03:26:50;;;;;;;20.38;3.40;;;;;;;16.08;99.89;100970.81;2017098;29;30095;-70
2022/07/26 03:27:56;;;;;;;15.18;3.20;;;;;;;16.02;99.40;100972.88;2017864;29;20125;-69
2022/07/26 03:28:59;;;;;;;14.90;3.03;;;;;;;16.04;99.56;100975.50;2017055;29;33017;-70
2022/07/26 03:30:01;;;;;;;17.60;2.85;;;;;;;16.02;99.66;100972.88;2017046;29;23156;-69
2022/07/26 03:31:05;;;;;;;13.18;3.03;;;;;;;15.98;99.30;100976.66;2016539;29;39793;-70
2022/07/26 03:32:08;;;;;;;17.23;2.88;;;;;;;16.01;100.00;100981.91;2016843;29;26947;-70
2022/07/26 03:33:10;;;;;;;15.82;3.33;;;;;;;15.99;99.67;100978.41;2016975;29;35157;-70
2022/07/26 03:34:12;;;;;;;15.30;3.10;;;;;;;15.99;100.00;100975.72;2016910;29;28003;-69
2022/07/26 03:35:14;;;;;;;16.92;3.00;;;;;;;16.00;99.72;100982.84;2016427;29;39041;-70
2022/07/26 03:36:16;;;;;;;16.38;2.78;;;;;;;16.04;100.00;100983.59;2017073;29;27832;-69
2022/07/26 03:37:19;;;;;;;18.48;2.97;;;;;;;16.06;100.00;100984.44;2017231;29;22594;-70
2022/07/26 03:38:21;;;;;;;18.50;3.45;;;;;;;16.07;100.00;100980.75;2017029;29;28621;-69
2022/07/26 03:39:24;;;;;;;18.13;2.97;;;;;;;16.06;99.94;100988.94;2016559;29;25063;-70
2022/07/26 03:40:31;;;;;;;16.88;3.10;;;;;;;16.08;100.00;100987.03;2017602;29;20184;-69
2022/07/26 03:41:35;;;;;;;20.58;3.13;;;;;;;16.11;99.89;100992.31;2016576;29;27693;-69
2022/07/26 03:42:37;;;;;;;15.07;2.63;;;;;;;16.10;100.00;100987.88;2016852;29;28537;-70
2022/07/26 03:43:39;;;;;;;18.88;3.60;;;;;;;16.10;99.79;100982.47;2016742;29;30117;-70
2022/07/26 03:44:43;;;;;;;17.25;2.55;;;;;;;16.12;99.50;100994.94;2016683;29;35192;-69
2022/07/26 03:45:45;;;;;;;14.48;2.83;;;;;;;16.13;99.64;100993.09;2017200;29;27323;-70
2022/07/26 03:46:47;;;;;;;13.98;2.60;;;;;;;16.17;100.00;100992.03;2016918;29;26041;-69
2022/07/26 03:47:49;;;;;;;14.82;3.30;;;;;;;16.21;99.43;100996.34;2016939;29;34132;-70
2022/07/26 03:48:50;;;;;;;18.83;3.40;;;;;;;16.21;99.36;100988.25;2016881;29;30262;-70
2022/07/26 03:49:52;;;;;;;15.82;2.97;;;;;;;16.23;99.18;100991.75;2016862;29;28569;-70
2022/07/26 03:50:54;;;;;;;16.15;2.83;;;;;;;16.30;99.79;100993.22;2017325;29;25084;-70
2022/07/26 03:51:56;;;;;;;15.25;3.20;;;;;;;16.31;99.35;100995.00;2016804;29;32349;-68
2022/07/26 03:52:59;;;;;;;16.65;3.05;;;;;;;16.32;98.86;100988.63;2016483;29;35205;-70
2022/07/26 03:54:01;;;;;;;16.63;3.63;;;;;;;16.34;98.95;100988.56;2016921;29;24139;-70
2022/07/26 03:56:27;;;;;;;14.82;3.05;;;;;;;16.34;98.83;100989.41;2016876;29;31227;-70
2022/07/26 03:56:30;;;;;;;18.35;3.38;;;;;;;16.35;98.43;100990.31;2017106;29;30927;-70
2022/07/26 03:57:32;;;;;;;11.85;2.78;;;;;;;16.36;98.77;100989.34;2017386;29;20588;-70
2022/07/26 03:58:34;;;;;;;13.30;2.55;;;;;;;16.35;98.99;100998.44;2015962;29;33111;-69
2022/07/26 03:59:36;;;;;;;11.32;3.28;;;;;;;16.36;98.37;100987.53;2016278;29;30352;-70
2022/07/26 04:00:39;;;;;;;17.48;3.10;;;;;;;16.38;99.10;101001.88;2017516;29;20057;-70
2022/07/26 04:01:41;;;;;;;14.63;2.95;;;;;;;16.40;98.33;100997.25;2016838;29;39038;-70
2022/07/26 04:02:45;;;;;;;15.63;2.83;;;;;;;16.42;98.19;100997.19;2023566;29;40432;-70
2022/07/26 04:03:47;;;;;;;15.70;3.13;;;;;;;16.44;98.39;100995.28;2023649;29;24176;-70
2022/07/26 04:04:51;;;;;;;16.27;3.50;;;;;;;16.47;98.23;100991.56;2017305;29;20042;-70
2022/07/26 04:05:53;;;;;;;11.35;2.58;;;;;;;16.50;98.33;100995.00;2015845;29;29961;-70
2022/07/26 04:06:55;;;;;;;15.88;2.95;;;;;;;16.52;98.26;100995.78;2016250;29;34286;-70
2022/07/26 04:07:59;;;;;;;16.73;3.20;;;;;;;16.54;97.74;100993.88;2017048;29;20184;-70
2022/07/26 04:09:03;;;;;;;17.42;3.00;;;;;;;16.56;97.93;100996.53;2016698;29;29277;-71
2022/07/26 04:10:06;;;;;;;17.95;3.45;;;;;;;16.60;98.04;100990.03;2016967;29;30948;-70
2022/07/26 04:11:08;;;;;;;13.10;2.92;;;;;;;16.60;97.53;100998.16;2017737;29;20145;-70
2022/07/26 04:12:09;;;;;;;14.40;2.90;;;;;;;16.61;97.63;100992.66;2015802;29;33580;-70
2022/07/26 04:13:11;;;;;;;17.98;3.20;;;;;;;16.64;96.99;100997.06;2017158;29;33738;-70
2022/07/26 04:14:16;;;;;;;11.23;2.60;;;;;;;16.64;97.30;100997.06;2016369;29;30684;-69
2022/07/26 04:15:19;;;;;;;17.67;3.22;;;;;;;16.67;97.25;100993.31;2016664;29;31195;-69
2022/07/26 04:16:21;;;;;;;15.93;3.08;;;;;;;16.67;96.98;101001.44;2016788;29;29442;-69
2022/07/26 04:17:23;;;;;;;11.68;2.40;;;;;;;16.68;96.94;100998.66;2016721;29;30443;-70
2022/07/26 04:18:25;;;;;;;14.07;2.85;;;;;;;16.69;97.17;101000.41;2017121;29;24849;-72
2022/07/26 04:19:27;;;;;;;14.45;2.90;;;;;;;16.69;97.79;101005.81;2016703;29;26399;-72
2022/07/26 04:20:28;;;;;;;12.27;2.38;;;;;;;16.70;97.90;101010.25;2016625;29;32170;-71
2022/07/26 04:21:30;;;;;;;13.45;3.00;;;;;;;16.69;98.24;101011.25;2017024;29;25361;-72
2022/07/26 04:22:34;;;;;;;18.02;3.25;;;;;;;16.67;98.59;101010.44;2017239;29;20157;-71
2022/07/26 04:23:38;;;;;;;16.67;3.22;;;;;;;16.67;98.00;101006.84;2015976;29;32136;-72
2022/07/26 04:24:40;;;;;;;15.00;3.63;;;;;;;16.67;98.15;101012.25;2016965;29;30680;-72
2022/07/26 04:25:41;;;;;;;13.52;2.70;;;;;;;16.68;98.46;101016.72;2016867;29;24236;-74
2022/07/26 04:26:43;;;;;;;23.02;3.35;;;;;;;16.66;98.72;101016.78;2016654;29;32268;-74
2022/07/26 04:27:45;;;;;;;19.58;3.80;;;;;;;16.66;99.62;101018.63;2016593;29;22280;-74
2022/07/26 04:28:47;;;;;;;12.63;2.80;;;;;;;16.66;99.39;101021.31;2016018;29;33547;-74
2022/07/26 04:29:49;;;;;;;19.20;3.60;;;;;;;16.64;100.00;101021.38;2016031;29;24550;-73
2022/07/26 04:30:51;;;;;;;14.70;2.92;;;;;;;16.65;99.47;101019.56;2016306;29;32506;-74
2022/07/26 04:31:55;;;;;;;16.08;2.65;;;;;;;16.64;99.63;101025.94;2016494;29;32139;-74
2022/07/26 04:32:56;;;;;;;12.68;3.35;;;;;;;16.63;100.00;101027.72;2016966;29;26537;-73
2022/07/26 04:33:58;;;;;;;12.77;3.00;;;;;;;16.63;100.00;101026.84;2017365;29;20850;-72
2022/07/26 04:35:00;;;;;;;15.50;3.38;;;;;;;16.62;100.00;101023.28;2017432;29;23360;-71
2022/07/26 04:36:02;;;;;;;19.13;3.85;;;;;;;16.60;100.00;101030.59;2017311;29;20084;-70
2022/07/26 04:37:06;;;;;;;12.65;2.97;;;;;;;16.58;100.00;101040.56;2017329;29;20176;-70
2022/07/26 04:38:08;;;;;;;17.23;3.13;;;;;;;16.55;100.00;101040.75;2016941;29;23025;-69
2022/07/26 04:39:12;;;;;;;13.90;3.10;;;;;;;16.52;100.00;101048.97;2016466;29;27656;-66
2022/07/26 04:40:21;;;;;;;20.38;3.88;;;;;;;16.47;100.00;101049.19;2016525;29;28308;-66
2022/07/26 04:41:24;;;;;;;14.85;3.35;;;;;;;16.45;100.00;101048.38;2016573;29;33845;-67
2022/07/26 04:42:26;;;;;;;12.55;3.53;;;;;;;16.41;100.00;101050.34;2023815;29;29076;-67
2022/07/26 04:43:30;;;;;;;13.10;4.00;;;;;;;16.42;100.00;101051.25;2023915;29;25042;-68
2022/07/26 04:44:32;;;;;;;11.10;2.88;;;;;;;16.38;100.00;101055.00;2016680;29;26636;-67
2022/07/26 04:45:34;;;;;;;8.55;2.33;;;;;;;16.35;100.00;101053.34;2016195;29;32679;-69
2022/07/26 04:46:36;;;;;;;11.50;2.70;;;;;;;16.31;100.00;101049.03;2016170;29;26847;-67
2022/07/26 04:47:44;;;;;;;9.52;2.63;;;;;;;16.29;100.00;101050.91;2016321;29;23503;-67
2022/07/26 04:48:45;;;;;;;8.70;2.20;;;;;;;16.26;100.00;101056.47;2024018;29;30547;-68
2022/07/26 04:49:47;;;;;;;16.10;3.20;;;;;;;16.26;100.00;101056.47;2023748;29;29607;-68
2022/07/26 04:50:51;;;;;;;8.88;2.25;;;;;;;16.22;100.00;101057.53;2016551;29;32378;-67